createdAt,value
2019-04-26T00:00:04.199Z,99.1
2019-04-26T00:01:02.860Z,99.4
2019-04-26T00:02:03.765Z,99.4
2019-04-26T00:03:03.008Z,98
2019-04-26T00:04:03.870Z,97
2019-04-26T00:05:03.809Z,97.5
2019-04-26T00:06:03.665Z,97
2019-04-26T00:07:04.343Z,96.6
2019-04-26T00:08:03.560Z,95.4
2019-04-26T00:09:04.710Z,95.9
2019-04-26T00:10:03.782Z,95.9
2019-04-26T00:11:03.592Z,95.2
2019-04-26T00:12:03.671Z,96.8
2019-04-26T00:13:36.872Z,95.2
2019-04-26T00:15:04.563Z,96.8
2019-04-26T00:16:03.365Z,97
2019-04-26T00:17:04.759Z,96.8
2019-04-26T00:18:03.659Z,94.7
2019-04-26T00:19:04.491Z,96.3
2019-04-26T00:20:03.428Z,96.3
2019-04-26T00:21:03.082Z,97.3
2019-04-26T00:22:04.169Z,96.1
2019-04-26T00:23:03.065Z,97.3
2019-04-26T00:24:04.067Z,96.8
2019-04-26T00:25:03.080Z,96.6
2019-04-26T00:26:03.503Z,96.6
2019-04-26T00:27:03.380Z,97.3
2019-04-26T00:28:03.363Z,98.2
2019-04-26T00:29:03.082Z,96.6
2019-04-26T00:30:03.440Z,98.4
2019-04-26T00:31:03.188Z,97.5
2019-04-26T00:32:02.842Z,98.4
2019-04-26T00:33:03.352Z,98.4
2019-04-26T00:34:03.237Z,100.1
2019-04-26T00:35:03.340Z,100.3
2019-04-26T00:36:03.152Z,100.1
2019-04-26T00:37:03.105Z,101
2019-04-26T00:38:03.245Z,99.4
2019-04-26T00:39:03.292Z,101.2
2019-04-26T00:40:03.162Z,100.3
2019-04-26T00:41:03.805Z,100.8
2019-04-26T00:42:03.860Z,99.8
2019-04-26T00:43:03.819Z,103.3
2019-04-26T00:44:03.768Z,101.2
2019-04-26T00:45:03.686Z,102.6
2019-04-26T00:46:03.798Z,102.6
2019-04-26T00:47:03.424Z,103.1
2019-04-26T00:48:03.703Z,103.8
2019-04-26T00:49:03.527Z,103.1
2019-04-26T00:50:03.820Z,103.6
2019-04-26T00:51:03.881Z,103.3
2019-04-26T00:52:03.445Z,101.9
2019-04-26T00:53:03.274Z,103.6
2019-04-26T00:54:03.250Z,103.6
2019-04-26T00:55:03.537Z,103.6
2019-04-26T00:56:03.009Z,101.5
2019-04-26T00:57:03.225Z,100.5
2019-04-26T00:58:03.776Z,101.2
2019-04-26T00:59:03.242Z,99.1
2019-04-26T01:00:03.242Z,101
2019-04-26T01:01:02.939Z,101.9
2019-04-26T01:02:03.723Z,101.2
2019-04-26T01:03:02.841Z,102.2
2019-04-26T01:04:03.419Z,101.2
2019-04-26T01:05:03.167Z,101.5
2019-04-26T01:06:03.058Z,101
2019-04-26T01:07:02.908Z,101
2019-04-26T01:08:02.821Z,100.8
2019-04-26T01:09:02.791Z,101.2
2019-04-26T01:10:02.897Z,101.2
2019-04-26T01:11:04.079Z,102.6
2019-04-26T01:12:03.686Z,103.6
2019-04-26T01:13:03.462Z,101.9
2019-04-26T01:14:03.527Z,103.1
2019-04-26T01:15:03.765Z,103.1
2019-04-26T01:16:02.063Z,103.3
2019-04-26T01:17:03.610Z,103.3
2019-04-26T01:18:03.528Z,103.6
2019-04-26T01:19:03.376Z,103.3
2019-04-26T01:20:03.627Z,102.2
2019-04-26T01:21:03.345Z,102.2
2019-04-26T01:22:03.400Z,99.1
2019-04-26T01:23:03.179Z,98
2019-04-26T01:24:03.237Z,97.5
2019-04-26T01:25:03.010Z,99.6
2019-04-26T01:26:03.213Z,98.7
2019-04-26T01:27:02.916Z,99.6
2019-04-26T01:28:02.944Z,100.1
2019-04-26T01:29:03.011Z,98.7
2019-04-26T01:30:02.786Z,100.5
2019-04-26T01:31:02.943Z,100.3
2019-04-26T01:32:02.929Z,99.6
2019-04-26T01:33:03.654Z,99.1
2019-04-26T01:35:36.278Z,98
2019-04-26T01:37:03.569Z,100.3
2019-04-26T01:38:03.796Z,98.7
2019-04-26T01:39:03.056Z,100.3
2019-04-26T01:40:03.733Z,100.1
2019-04-26T01:41:03.473Z,100.1
2019-04-26T01:42:03.769Z,101.2
2019-04-26T01:43:03.242Z,100.3
2019-04-26T01:44:03.256Z,99.6
2019-04-26T01:45:03.627Z,99.6
2019-04-26T01:46:03.401Z,99.8
2019-04-26T01:47:03.344Z,99.8
2019-04-26T01:48:03.048Z,101.7
2019-04-26T01:49:03.457Z,101
2019-04-26T01:50:03.522Z,101
2019-04-26T01:51:03.127Z,100.8
2019-04-26T01:52:03.361Z,100.8
2019-04-26T01:53:03.099Z,100.3
2019-04-26T01:54:02.926Z,100.8
2019-04-26T01:55:03.161Z,99.8
2019-04-26T01:56:03.021Z,100.3
2019-04-26T01:57:03.017Z,98.9
2019-04-26T01:58:03.262Z,101.7
2019-04-26T01:59:03.112Z,100.5
2019-04-26T02:00:03.946Z,102.4
2019-04-26T02:01:03.686Z,104.5
2019-04-26T02:02:03.998Z,102.2
2019-04-26T02:03:03.153Z,105
2019-04-26T02:04:03.597Z,103.8
2019-04-26T02:05:03.816Z,104.3
2019-04-26T02:06:03.720Z,104
2019-04-26T02:07:03.251Z,105.2
2019-04-26T02:08:03.383Z,104.7
2019-04-26T02:09:03.229Z,103.3
2019-04-26T02:10:03.391Z,101.2
2019-04-26T02:11:03.461Z,101.2
2019-04-26T02:12:03.015Z,103.1
2019-04-26T02:13:03.203Z,101
2019-04-26T02:14:03.673Z,102.9
2019-04-26T02:15:03.447Z,100.5
2019-04-26T02:16:03.241Z,101.5
2019-04-26T02:17:04.265Z,100.8
2019-04-26T02:18:02.873Z,102.2
2019-04-26T02:19:04.880Z,101
2019-04-26T02:20:04.308Z,100.5
2019-04-26T02:21:06.532Z,102.6
2019-04-26T02:22:04.463Z,103.6
2019-04-26T02:23:03.509Z,102.4
2019-04-26T02:24:04.251Z,103.3
2019-04-26T02:25:04.412Z,102.2
2019-04-26T02:26:06.093Z,102.2
2019-04-26T02:27:03.345Z,101.2
2019-04-26T02:28:04.053Z,102.9
2019-04-26T02:29:03.878Z,101.9
2019-04-26T02:30:04.140Z,101.7
2019-04-26T02:31:03.192Z,101.5
2019-04-26T02:32:04.038Z,100.8
2019-04-26T02:33:04.045Z,100.3
2019-04-26T02:34:03.147Z,100.8
2019-04-26T02:35:04.011Z,100.1
2019-04-26T02:36:03.851Z,101.2
2019-04-26T02:37:04.866Z,100.8
2019-04-26T02:38:06.568Z,99.6
2019-04-26T02:39:03.506Z,99.1
2019-04-26T02:40:03.761Z,99.4
2019-04-26T02:41:04.652Z,98.2
2019-04-26T02:42:04.332Z,98.2
2019-04-26T02:43:03.496Z,96.3
2019-04-26T02:44:03.511Z,98
2019-04-26T02:45:03.471Z,97
2019-04-26T02:46:03.572Z,98
2019-04-26T02:47:04.691Z,97.5
2019-04-26T02:48:03.081Z,97
2019-04-26T02:49:03.203Z,95.9
2019-04-26T02:50:03.130Z,96.1
2019-04-26T02:51:03.134Z,96.1
2019-04-26T02:52:03.224Z,96.8
2019-04-26T02:53:03.671Z,97
2019-04-26T02:54:03.704Z,97.5
2019-04-26T02:55:02.974Z,97.3
2019-04-26T02:56:04.008Z,99.1
2019-04-26T02:57:04.821Z,96.3
2019-04-26T02:58:03.585Z,98
2019-04-26T02:59:04.260Z,97.3
2019-04-26T03:00:02.623Z,96.8
2019-04-26T03:01:03.662Z,96.8
2019-04-26T03:02:03.581Z,95.4
2019-04-26T03:03:03.627Z,94.5
2019-04-26T03:04:03.684Z,94
2019-04-26T03:05:03.718Z,94.7
2019-04-26T03:06:03.543Z,94.2
2019-04-26T03:07:04.354Z,95.4
2019-04-26T03:08:03.504Z,96.3
2019-04-26T03:09:03.522Z,97
2019-04-26T03:10:03.437Z,96.8
2019-04-26T03:11:03.409Z,97.3
2019-04-26T03:12:03.289Z,97.5
2019-04-26T03:13:03.406Z,96.3
2019-04-26T03:14:03.141Z,97.7
2019-04-26T03:15:14.878Z,95.9
2019-04-26T03:16:03.393Z,97
2019-04-26T03:17:03.977Z,95.9
2019-04-26T03:18:02.951Z,98
2019-04-26T03:19:03.043Z,96.6
2019-04-26T03:20:03.923Z,96.8
2019-04-26T03:21:03.882Z,96.3
2019-04-26T03:22:03.794Z,96.3
2019-04-26T03:23:04.136Z,97.3
2019-04-26T03:24:03.822Z,96.8
2019-04-26T03:25:04.366Z,96.8
2019-04-26T03:26:03.829Z,96.1
2019-04-26T03:27:03.755Z,94.9
2019-04-26T03:28:03.663Z,95.9
2019-04-26T03:29:03.658Z,95.4
2019-04-26T03:30:24.168Z,95.6
2019-04-26T03:32:03.841Z,95.6
2019-04-26T03:33:04.188Z,94.7
2019-04-26T03:34:04.190Z,96.8
2019-04-26T03:35:03.625Z,95.4
2019-04-26T03:36:03.807Z,96.3
2019-04-26T03:37:22.159Z,94.5
2019-04-26T03:39:03.594Z,94
2019-04-26T03:40:03.569Z,95.2
2019-04-26T03:41:03.853Z,94.9
2019-04-26T03:42:03.336Z,94.9
2019-04-26T03:43:03.394Z,94.7
2019-04-26T03:44:03.274Z,94.5
2019-04-26T03:45:03.200Z,93.3
2019-04-26T03:46:03.106Z,93.1
2019-04-26T03:47:03.505Z,94.9
2019-04-26T03:48:03.343Z,94.5
2019-04-26T03:49:03.182Z,94
2019-04-26T03:50:03.134Z,94.9
2019-04-26T03:51:03.149Z,93.8
2019-04-26T03:52:03.066Z,92.6
2019-04-26T03:53:02.941Z,93.8
2019-04-26T03:54:03.163Z,90.7
2019-04-26T03:55:04.113Z,92.8
2019-04-26T03:56:02.892Z,92.1
2019-04-26T03:57:03.071Z,90.5
2019-04-26T03:58:03.850Z,91.2
2019-04-26T03:59:03.959Z,91
2019-04-26T04:00:02.908Z,89.8
2019-04-26T04:01:03.727Z,89.6
2019-04-26T04:02:03.523Z,91.4
2019-04-26T04:03:03.957Z,89.8
2019-04-26T04:04:03.713Z,92.4
2019-04-26T04:05:03.469Z,91.7
2019-04-26T04:06:03.475Z,91.7
2019-04-26T04:07:05.532Z,91.4
2019-04-26T04:08:03.711Z,91.7
2019-04-26T04:09:03.650Z,91.7
2019-04-26T04:10:03.652Z,92.6
2019-04-26T04:11:03.781Z,91.4
2019-04-26T04:12:12.894Z,91.9
2019-04-26T04:13:03.408Z,92.6
2019-04-26T04:14:03.848Z,92.1
2019-04-26T04:15:03.354Z,93.1
2019-04-26T04:16:03.348Z,94
2019-04-26T04:17:03.068Z,93.5
2019-04-26T04:18:03.002Z,94.9
2019-04-26T04:19:03.101Z,94.5
2019-04-26T04:20:03.097Z,94.9
2019-04-26T04:21:03.830Z,94.5
2019-04-26T04:22:02.863Z,96.3
2019-04-26T04:23:03.032Z,98.2
2019-04-26T04:24:03.344Z,94.9
2019-04-26T04:25:03.794Z,98
2019-04-26T04:26:03.745Z,98.9
2019-04-26T04:27:03.838Z,97.5
2019-04-26T04:28:03.783Z,97.7
2019-04-26T04:29:03.433Z,96.8
2019-04-26T04:30:03.690Z,96.8
2019-04-26T04:31:02.818Z,97
2019-04-26T04:32:03.716Z,98.4
2019-04-26T04:33:03.582Z,97.7
2019-04-26T04:34:03.693Z,99.6
2019-04-26T04:35:07.135Z,98.4
2019-04-26T04:36:03.337Z,98.9
2019-04-26T04:37:03.394Z,98.9
2019-04-26T04:38:10.249Z,99.4
2019-04-26T04:39:13.597Z,98.9
2019-04-26T04:40:03.500Z,100.5
2019-04-26T04:41:03.231Z,99.1
2019-04-26T04:42:03.523Z,99.6
2019-04-26T04:43:03.509Z,98.7
2019-04-26T04:44:03.733Z,99.4
2019-04-26T04:45:03.621Z,97.5
2019-04-26T04:46:03.791Z,97.3
2019-04-26T04:47:03.185Z,98.7
2019-04-26T04:48:03.375Z,97.7
2019-04-26T04:49:03.720Z,98.2
2019-04-26T04:50:03.064Z,97.3
2019-04-26T04:51:03.030Z,97.7
2019-04-26T04:52:03.977Z,97.5
2019-04-26T04:53:04.196Z,97.7
2019-04-26T04:54:03.818Z,97.7
2019-04-26T04:55:08.538Z,98.4
2019-04-26T04:56:04.032Z,98.9
2019-04-26T04:57:03.029Z,98
2019-04-26T04:58:03.663Z,99.8
2019-04-26T04:59:03.880Z,99.6
2019-04-26T05:00:04.111Z,99.6
2019-04-26T05:01:03.555Z,98.2
2019-04-26T05:02:03.799Z,99.1
2019-04-26T05:03:03.823Z,97.7
2019-04-26T05:04:03.652Z,96.3
2019-04-26T05:05:03.664Z,96.3
2019-04-26T05:06:08.258Z,96.6
2019-04-26T05:07:03.480Z,97.5
2019-04-26T05:08:07.383Z,97
2019-04-26T05:09:03.833Z,96.1
2019-04-26T05:10:03.703Z,96.1
2019-04-26T05:11:03.571Z,95.6
2019-04-26T05:12:03.588Z,94.9
2019-04-26T05:13:03.698Z,97.5
2019-04-26T05:14:03.364Z,96.1
2019-04-26T05:15:03.588Z,97.3
2019-04-26T05:16:03.279Z,98.2
2019-04-26T05:17:03.678Z,97
2019-04-26T05:18:03.271Z,97.5
2019-04-26T05:19:03.441Z,97
2019-04-26T05:20:03.401Z,96.8
2019-04-26T05:21:03.222Z,96.1
2019-04-26T05:22:03.107Z,96.6
2019-04-26T05:23:03.091Z,96.6
2019-04-26T05:24:03.118Z,94.5
2019-04-26T05:25:04.108Z,95.9
2019-04-26T05:26:03.525Z,94.7
2019-04-26T05:27:02.961Z,94
2019-04-26T05:28:03.083Z,94
2019-04-26T05:29:03.224Z,94
2019-04-26T05:30:03.221Z,93.5
2019-04-26T05:31:03.180Z,94.5
2019-04-26T05:32:03.038Z,93.1
2019-04-26T05:33:02.834Z,91.9
2019-04-26T05:34:02.746Z,92.1
2019-04-26T05:35:02.777Z,90.5
2019-04-26T05:36:04.000Z,89.8
2019-04-26T05:37:03.813Z,91.2
2019-04-26T05:38:03.718Z,90.5
2019-04-26T05:39:03.848Z,88.9
2019-04-26T05:40:03.474Z,92.1
2019-04-26T05:41:03.830Z,89.8
2019-04-26T05:42:03.649Z,92.4
2019-04-26T05:43:03.579Z,91.4
2019-04-26T05:44:03.638Z,93.3
2019-04-26T05:45:03.200Z,94
2019-04-26T05:46:03.412Z,94.5
2019-04-26T05:47:03.352Z,93.8
2019-04-26T05:48:12.208Z,93.8
2019-04-26T05:49:03.869Z,93.8
2019-04-26T05:50:03.464Z,93.5
2019-04-26T05:51:03.355Z,94.7
2019-04-26T05:52:03.123Z,95.4
2019-04-26T05:53:03.146Z,94.2
2019-04-26T05:54:02.933Z,94.7
2019-04-26T05:55:03.209Z,93.8
2019-04-26T05:56:03.102Z,94.7
2019-04-26T05:57:03.060Z,94.2
2019-04-26T05:58:03.155Z,94.7
2019-04-26T05:59:03.389Z,94.2
2019-04-26T06:00:03.011Z,93.8
2019-04-26T06:01:03.264Z,94
2019-04-26T06:02:03.861Z,95.2
2019-04-26T06:03:03.257Z,96.3
2019-04-26T06:04:03.822Z,94.5
2019-04-26T06:05:03.405Z,95.2
2019-04-26T06:06:05.703Z,94.7
2019-04-26T06:07:03.811Z,95.6
2019-04-26T06:08:03.992Z,94
2019-04-26T06:09:03.804Z,94.9
2019-04-26T06:10:04.080Z,96.3
2019-04-26T06:11:03.281Z,94.9
2019-04-26T06:12:03.785Z,94.9
2019-04-26T06:13:03.680Z,94.9
2019-04-26T06:14:03.708Z,92.6
2019-04-26T06:15:03.885Z,92.1
2019-04-26T06:16:03.607Z,91.4
2019-04-26T06:17:03.447Z,90
2019-04-26T06:18:03.328Z,90.3
2019-04-26T06:19:03.238Z,90.3
2019-04-26T06:20:03.296Z,89.6
2019-04-26T06:21:03.134Z,90.7
2019-04-26T06:22:03.372Z,88.6
2019-04-26T06:23:03.115Z,89.3
2019-04-26T06:24:03.490Z,89.1
2019-04-26T06:25:03.612Z,89.6
2019-04-26T06:26:04.893Z,89.8
2019-04-26T06:27:14.657Z,90.5
2019-04-26T06:29:03.551Z,90.3
2019-04-26T06:30:03.711Z,92.6
2019-04-26T06:31:03.688Z,92.4
2019-04-26T06:32:02.855Z,94
2019-04-26T06:33:06.554Z,93.8
2019-04-26T06:34:03.257Z,93.8
2019-04-26T06:35:03.780Z,93.5
2019-04-26T06:36:04.108Z,94
2019-04-26T06:37:04.576Z,95.2
2019-04-26T06:38:04.181Z,94.5
2019-04-26T06:39:02.785Z,94
2019-04-26T06:40:03.064Z,95.4
2019-04-26T06:41:04.588Z,93.1
2019-04-26T06:42:03.141Z,94.7
2019-04-26T06:43:03.560Z,94.2
2019-04-26T06:44:04.920Z,93.3
2019-04-26T06:45:04.909Z,93.3
2019-04-26T06:46:04.722Z,93.5
2019-04-26T06:47:04.245Z,91
2019-04-26T06:48:04.172Z,90.5
2019-04-26T06:49:03.632Z,93.1
2019-04-26T06:50:03.768Z,91
2019-04-26T06:51:05.040Z,92.1
2019-04-26T06:52:03.547Z,92.6
2019-04-26T06:53:03.817Z,91.4
2019-04-26T06:54:03.694Z,91
2019-04-26T06:55:04.494Z,90.5
2019-04-26T06:56:03.270Z,90.5
2019-04-26T06:57:15.467Z,89.8
2019-04-26T06:58:03.333Z,90.3
2019-04-26T06:59:03.720Z,89.6
2019-04-26T07:00:04.613Z,90
2019-04-26T07:01:03.479Z,89.8
2019-04-26T07:02:03.282Z,89.3
2019-04-26T07:03:03.813Z,88.4
2019-04-26T07:04:04.379Z,88.2
2019-04-26T07:05:04.997Z,88.4
2019-04-26T07:06:03.096Z,89.8
2019-04-26T07:07:02.934Z,90
2019-04-26T07:08:07.258Z,91
2019-04-26T07:09:03.921Z,91
2019-04-26T07:10:04.281Z,92.6
2019-04-26T07:11:05.071Z,91.9
2019-04-26T07:12:03.770Z,92.6
2019-04-26T07:13:04.157Z,94.2
2019-04-26T07:14:04.879Z,94
2019-04-26T07:15:04.045Z,95.2
2019-04-26T07:16:23.542Z,94.7
2019-04-26T07:18:04.624Z,97
2019-04-26T07:19:03.683Z,95.6
2019-04-26T07:20:07.823Z,95.2
2019-04-26T07:21:03.110Z,96.8
2019-04-26T07:22:04.254Z,95.4
2019-04-26T07:23:06.110Z,96.3
2019-04-26T07:24:04.129Z,96.3
2019-04-26T07:25:03.777Z,97
2019-04-26T07:26:04.005Z,97.3
2019-04-26T07:27:05.149Z,95.9
2019-04-26T07:28:12.663Z,95.4
2019-04-26T07:29:04.306Z,94
2019-04-26T07:30:05.624Z,94.2
2019-04-26T07:31:04.314Z,93.8
2019-04-26T07:32:03.567Z,94.2
2019-04-26T07:33:04.365Z,91.9
2019-04-26T07:34:03.789Z,91.4
2019-04-26T07:35:04.816Z,92.8
2019-04-26T07:36:03.994Z,93.1
2019-04-26T07:37:04.855Z,92.6
2019-04-26T07:38:04.978Z,91.2
2019-04-26T07:39:21.038Z,93.3
2019-04-26T07:41:03.448Z,93.3
2019-04-26T07:42:03.512Z,93.3
2019-04-26T07:43:03.482Z,92.6
2019-04-26T07:44:04.068Z,93.1
2019-04-26T07:45:03.987Z,94
2019-04-26T07:46:04.277Z,94.5
2019-04-26T07:47:04.332Z,94.5
2019-04-26T07:48:03.394Z,94
2019-04-26T07:49:04.357Z,95.2
2019-04-26T07:50:05.265Z,94.2
2019-04-26T07:51:04.522Z,93.1
2019-04-26T07:52:04.475Z,93.1
2019-04-26T07:53:05.210Z,94.2
2019-04-26T07:54:05.215Z,94.2
2019-04-26T07:55:05.062Z,94.7
2019-04-26T07:56:05.191Z,95.9
2019-04-26T07:57:04.767Z,95.9
2019-04-26T07:58:05.405Z,96.1
2019-04-26T07:59:08.871Z,97.7
2019-04-26T08:00:04.493Z,97.7
2019-04-26T08:01:05.138Z,99.8
2019-04-26T08:02:06.590Z,98.4
2019-04-26T08:03:07.168Z,99.4
2019-04-26T08:04:05.455Z,99.4
2019-04-26T08:05:06.034Z,99.1
2019-04-26T08:06:05.969Z,98
2019-04-26T08:07:06.475Z,96.6
2019-04-26T08:08:07.072Z,97.5
2019-04-26T08:09:07.190Z,95.9
2019-04-26T08:10:06.255Z,96.1
2019-04-26T08:11:04.766Z,95.4
2019-04-26T08:12:06.294Z,94
2019-04-26T08:13:06.283Z,93.5
2019-04-26T08:14:06.461Z,93.3
2019-04-26T08:15:06.216Z,92.6
2019-04-26T08:16:08.749Z,91
2019-04-26T08:17:06.782Z,91.2
2019-04-26T08:18:06.761Z,91.7
2019-04-26T08:19:08.490Z,92.1
2019-04-26T08:20:14.075Z,93.5
2019-04-26T08:21:18.602Z,93.5
2019-04-26T08:22:33.775Z,92.8
2019-04-26T08:23:42.308Z,94.2
2019-04-26T08:25:03.638Z,92.1
2019-04-26T08:26:03.002Z,93.3
2019-04-26T08:27:24.443Z,91.2
2019-04-26T08:28:03.841Z,92.8
2019-04-26T08:29:03.555Z,93.5
2019-04-26T08:30:19.788Z,92.8
2019-04-26T08:31:09.033Z,94.2
2019-04-26T08:32:03.545Z,92.8
2019-04-26T08:33:16.104Z,94.5
2019-04-26T08:35:21.956Z,93.3
2019-04-26T08:37:03.472Z,93.3
2019-04-26T08:38:22.991Z,91.2
2019-04-26T08:39:03.377Z,92.1
2019-04-26T08:40:03.414Z,93.3
2019-04-26T08:41:09.994Z,93.5
2019-04-26T08:42:03.725Z,92.6
2019-04-26T08:43:02.996Z,92.6
2019-04-26T08:44:09.848Z,95.4
2019-04-26T08:45:15.319Z,95.4
2019-04-26T08:46:03.750Z,94.7
2019-04-26T08:47:26.380Z,97.7
2019-04-26T08:49:06.840Z,98
2019-04-26T08:50:02.872Z,99.4
2019-04-26T08:51:03.805Z,98.9
2019-04-26T08:52:15.321Z,99.8
2019-04-26T08:54:03.822Z,99.4
2019-04-26T08:55:03.122Z,100.5
2019-04-26T08:56:03.742Z,97.3
2019-04-26T08:57:02.956Z,99.1
2019-04-26T08:58:03.734Z,97.7
2019-04-26T08:59:03.821Z,97
2019-04-26T09:00:03.994Z,99.6
2019-04-26T09:01:03.465Z,98.4
2019-04-26T09:02:03.442Z,100.3
2019-04-26T09:03:12.317Z,99.6
2019-04-26T09:04:03.557Z,100.3
2019-04-26T09:05:03.692Z,100.8
2019-04-26T09:06:03.540Z,99.6
2019-04-26T09:07:03.671Z,100.8
2019-04-26T09:08:04.241Z,101
2019-04-26T09:09:03.141Z,101
2019-04-26T09:10:11.648Z,101
2019-04-26T09:11:02.998Z,102.2
2019-04-26T09:12:09.987Z,102.2
2019-04-26T09:13:03.063Z,102.6
2019-04-26T09:14:03.418Z,102.4
2019-04-26T09:15:02.824Z,103.6
2019-04-26T09:16:03.748Z,104.3
2019-04-26T09:17:03.185Z,104.5
2019-04-26T09:18:07.102Z,105.7
2019-04-26T09:19:02.971Z,104.7
2019-04-26T09:20:09.825Z,103.6
2019-04-26T09:21:02.797Z,101.7
2019-04-26T09:22:13.794Z,104.3
2019-04-26T09:23:05.253Z,102.2
2019-04-26T09:24:03.685Z,102.9
2019-04-26T09:25:03.783Z,102.4
2019-04-26T09:26:03.889Z,105
2019-04-26T09:27:03.069Z,104
2019-04-26T09:28:03.657Z,104
2019-04-26T09:29:03.769Z,106.1
2019-04-26T09:30:06.641Z,102.9
2019-04-26T09:31:03.325Z,105
2019-04-26T09:32:03.712Z,103.3
2019-04-26T09:33:03.676Z,105.9
2019-04-26T09:34:11.604Z,102.6
2019-04-26T09:35:03.347Z,104
2019-04-26T09:36:03.298Z,106.1
2019-04-26T09:37:03.118Z,106.1
2019-04-26T09:38:03.350Z,106.6
2019-04-26T09:39:09.977Z,107.1
2019-04-26T09:40:22.825Z,109.2
2019-04-26T09:42:09.931Z,108.9
2019-04-26T09:43:03.037Z,110.1
2019-04-26T09:44:03.012Z,108.7
2019-04-26T09:45:02.889Z,109.4
2019-04-26T09:46:03.975Z,107.8
2019-04-26T09:47:02.903Z,107.8
2019-04-26T09:48:03.779Z,108.5
2019-04-26T09:49:08.728Z,106.8
2019-04-26T09:50:03.710Z,108.5
2019-04-26T09:51:03.607Z,105.2
2019-04-26T09:52:03.439Z,104.3
2019-04-26T09:53:03.290Z,104.5
2019-04-26T09:54:03.440Z,105.7
2019-04-26T09:55:03.514Z,106.4
2019-04-26T09:56:03.445Z,105.7
2019-04-26T09:57:03.249Z,106.4
2019-04-26T09:58:03.336Z,105.9
2019-04-26T09:59:06.977Z,105.7
2019-04-26T10:00:02.981Z,105
2019-04-26T10:01:06.483Z,105
2019-04-26T10:02:03.200Z,105.7
2019-04-26T10:03:10.915Z,102.4
2019-04-26T10:04:03.670Z,104.5
2019-04-26T10:05:03.227Z,103.8
2019-04-26T10:06:02.996Z,105.2
2019-04-26T10:07:04.397Z,104
2019-04-26T10:08:03.805Z,105.9
2019-04-26T10:09:02.973Z,103.3
2019-04-26T10:10:03.998Z,104.7
2019-04-26T10:11:11.021Z,104
2019-04-26T10:12:03.868Z,103.8
2019-04-26T10:13:03.805Z,102.9
2019-04-26T10:14:03.780Z,101.7
2019-04-26T10:15:03.925Z,102.2
2019-04-26T10:16:04.524Z,101.2
2019-04-26T10:17:03.490Z,101.2
2019-04-26T10:18:03.667Z,101
2019-04-26T10:19:03.424Z,101
2019-04-26T10:20:03.523Z,101.9
2019-04-26T10:21:03.190Z,100.3
2019-04-26T10:22:03.215Z,102.6
2019-04-26T10:23:03.319Z,99.8
2019-04-26T10:24:02.040Z,100.8
2019-04-26T10:25:17.248Z,100.8
2019-04-26T10:26:03.261Z,101.7
2019-04-26T10:27:05.122Z,100.3
2019-04-26T10:28:03.023Z,100.8
2019-04-26T10:29:03.091Z,100.3
2019-04-26T10:30:09.803Z,100.1
2019-04-26T10:31:03.247Z,100.5
2019-04-26T10:32:03.133Z,101.2
2019-04-26T10:33:03.740Z,103.3
2019-04-26T10:34:03.114Z,101.2
2019-04-26T10:35:02.941Z,102.6
2019-04-26T10:36:03.961Z,102.9
2019-04-26T10:37:08.174Z,101.5
2019-04-26T10:38:03.637Z,99.6
2019-04-26T10:39:03.712Z,98.2
2019-04-26T10:40:03.669Z,97.5
2019-04-26T10:41:03.690Z,97.3
2019-04-26T10:42:03.748Z,97.7
2019-04-26T10:43:03.754Z,97
2019-04-26T10:44:02.877Z,95.6
2019-04-26T10:45:03.709Z,96.8
2019-04-26T10:46:03.568Z,95.4
2019-04-26T10:47:06.268Z,96.8
2019-04-26T10:48:03.110Z,97.3
2019-04-26T10:49:12.260Z,97.3
2019-04-26T10:50:03.306Z,99.6
2019-04-26T10:51:09.072Z,99.1
2019-04-26T10:52:03.008Z,99.4
2019-04-26T10:53:03.053Z,100.3
2019-04-26T10:54:07.907Z,101.2
2019-04-26T10:55:03.022Z,100.5
2019-04-26T10:56:03.174Z,100.1
2019-04-26T10:57:02.987Z,101
2019-04-26T10:58:03.070Z,100.5
2019-04-26T10:59:11.159Z,102.2
2019-04-26T11:00:03.968Z,100.1
2019-04-26T11:01:03.885Z,101.7
2019-04-26T11:02:03.770Z,101.2
2019-04-26T11:03:06.383Z,100.3
2019-04-26T11:04:03.734Z,101
2019-04-26T11:05:03.560Z,100.8
2019-04-26T11:06:03.425Z,102.6
2019-04-26T11:07:03.700Z,101.7
2019-04-26T11:08:03.511Z,101.9
2019-04-26T11:09:03.426Z,101.9
2019-04-26T11:10:03.484Z,102.2
2019-04-26T11:11:03.635Z,102.6
2019-04-26T11:12:03.532Z,104.3
2019-04-26T11:13:03.427Z,104.3
2019-04-26T11:14:03.128Z,106.4
2019-04-26T11:15:06.322Z,104.3
2019-04-26T11:16:09.150Z,107.3
2019-04-26T11:17:03.109Z,107.3
2019-04-26T11:18:03.009Z,105.9
2019-04-26T11:19:02.822Z,106.8
2019-04-26T11:20:12.141Z,106.4
2019-04-26T11:21:04.043Z,106.4
2019-04-26T11:22:03.891Z,107.8
2019-04-26T11:23:03.814Z,107.8
2019-04-26T11:24:03.827Z,109.4
2019-04-26T11:25:03.916Z,110.8
2019-04-26T11:26:03.477Z,110.1
2019-04-26T11:27:11.459Z,110.1
2019-04-26T11:28:03.872Z,110.6
2019-04-26T11:29:03.815Z,108.9
2019-04-26T11:30:21.633Z,109.6
2019-04-26T11:32:04.494Z,108.9
2019-04-26T11:33:03.542Z,108.5
2019-04-26T11:34:06.029Z,107.5
2019-04-26T11:35:03.828Z,106.6
2019-04-26T11:36:09.223Z,107.5
2019-04-26T11:37:02.962Z,107.5
2019-04-26T11:38:03.358Z,106.6
2019-04-26T11:39:07.982Z,107.8
2019-04-26T11:40:03.243Z,106.6
2019-04-26T11:41:07.434Z,109.2
2019-04-26T11:42:03.300Z,106.8
2019-04-26T11:43:02.982Z,107.5
2019-04-26T11:44:03.532Z,106.4
2019-04-26T11:45:16.256Z,106.1
2019-04-26T11:46:05.619Z,104.3
2019-04-26T11:47:08.330Z,105.4
2019-04-26T11:48:03.646Z,105.2
2019-04-26T11:49:08.498Z,104.3
2019-04-26T11:50:03.783Z,105.9
2019-04-26T11:51:03.631Z,103.1
2019-04-26T11:52:04.248Z,105
2019-04-26T11:53:11.368Z,104.3
2019-04-26T11:54:03.823Z,104.5
2019-04-26T11:55:04.040Z,104
2019-04-26T11:56:06.055Z,104
2019-04-26T11:57:03.172Z,102.6
2019-04-26T11:58:03.200Z,103.1
2019-04-26T11:59:03.440Z,104.3
2019-04-26T12:00:06.885Z,104.5
2019-04-26T12:01:03.911Z,104.5
2019-04-26T12:02:03.089Z,104.5
2019-04-26T12:03:03.783Z,105
2019-04-26T12:04:03.684Z,104.7
2019-04-26T12:05:03.611Z,104.7
2019-04-26T12:06:03.950Z,103.6
2019-04-26T12:07:03.386Z,105.9
2019-04-26T12:08:03.420Z,104
2019-04-26T12:09:03.523Z,104.7
2019-04-26T12:10:11.492Z,105.4
2019-04-26T12:11:03.253Z,103.3
2019-04-26T12:12:14.110Z,104.5
2019-04-26T12:13:06.456Z,103.1
2019-04-26T12:14:04.708Z,104
2019-04-26T12:15:10.340Z,101.2
2019-04-26T12:16:02.871Z,101.7
2019-04-26T12:17:03.347Z,101
2019-04-26T12:18:11.397Z,99.6
2019-04-26T12:19:03.143Z,101.2
2019-04-26T12:20:03.641Z,101.2
2019-04-26T12:21:02.929Z,100.8
2019-04-26T12:22:10.113Z,100.8
2019-04-26T12:23:03.721Z,100.3
2019-04-26T12:24:03.524Z,99.1
2019-04-26T12:25:08.595Z,99.8
2019-04-26T12:26:02.740Z,98.7
2019-04-26T12:27:03.671Z,98.9
2019-04-26T12:28:07.943Z,98.9
2019-04-26T12:29:03.369Z,98
2019-04-26T12:30:03.798Z,100.3
2019-04-26T12:31:02.865Z,99.4
2019-04-26T12:32:03.326Z,100.3
2019-04-26T12:33:03.405Z,100.8
2019-04-26T12:34:03.100Z,100.8
2019-04-26T12:35:03.509Z,101.9
2019-04-26T12:36:03.672Z,102.4
2019-04-26T12:37:03.626Z,101.7
2019-04-26T12:38:03.549Z,102.4
2019-04-26T12:39:03.719Z,102.9
2019-04-26T12:40:03.409Z,102.9
2019-04-26T12:41:03.093Z,104
2019-04-26T12:42:03.181Z,103.1
2019-04-26T12:43:03.549Z,103.3
2019-04-26T12:44:03.627Z,104
2019-04-26T12:45:02.999Z,104.5
2019-04-26T12:46:02.825Z,103.8
2019-04-26T12:47:05.437Z,102.9
2019-04-26T12:48:02.992Z,104.5
2019-04-26T12:49:03.134Z,101.7
2019-04-26T12:50:03.219Z,103.8
2019-04-26T12:51:03.080Z,100.8
2019-04-26T12:52:03.998Z,101.7
2019-04-26T12:53:03.914Z,101.2
2019-04-26T12:54:10.077Z,101.2
2019-04-26T12:55:03.679Z,100.3
2019-04-26T12:56:03.701Z,100.1
2019-04-26T12:57:07.199Z,99.6
2019-04-26T12:58:03.597Z,99.6
2019-04-26T12:59:03.616Z,99.8
2019-04-26T13:00:03.957Z,98.7
2019-04-26T13:01:03.817Z,99.4
2019-04-26T13:02:06.459Z,97
2019-04-26T13:03:03.770Z,96.8
2019-04-26T13:04:03.930Z,97.5
2019-04-26T13:05:03.891Z,97.5
2019-04-26T13:06:03.787Z,96.8
2019-04-26T13:07:24.107Z,98.7
2019-04-26T13:09:03.402Z,97
2019-04-26T13:10:03.581Z,96.6
2019-04-26T13:11:16.265Z,96.1
2019-04-26T13:13:03.418Z,95.4
2019-04-26T13:14:03.711Z,96.3
2019-04-26T13:15:03.566Z,97.3
2019-04-26T13:16:03.423Z,97.5
2019-04-26T13:17:03.370Z,97.5
2019-04-26T13:18:07.183Z,96.1
2019-04-26T13:19:03.223Z,96.1
2019-04-26T13:20:03.218Z,96.3
2019-04-26T13:21:04.704Z,95.4
2019-04-26T13:22:03.393Z,95.4
2019-04-26T13:23:03.318Z,94.5
2019-04-26T13:24:06.441Z,93.1
2019-04-26T13:25:03.406Z,94.2
2019-04-26T13:26:02.935Z,95.9
2019-04-26T13:27:12.495Z,96.3
2019-04-26T13:28:03.806Z,97
2019-04-26T13:29:03.260Z,97
2019-04-26T13:30:12.210Z,98.4
2019-04-26T13:31:03.166Z,95.9